Time;durP1;ratioP1;P1;durP2;ratioP2;P2;SDS_P1;SDS_P2;PMS_P1;PMS_P2;Temp;Humidity;BMP_temperature;BMP_pressure;BME280_temperature;BME280_humidity;BME280_pressure;Samples;Min_cycle;Max_cycle;Signal;HPM_P1;HPM_P2
2024/01/20 00:00:53;;;;;;;16.50;11.90;;;;;;;-2.97;100.00;99797.45;432707;1260;140927;-53
2024/01/20 00:10:59;;;;;;;14.30;11.70;;;;;;;-2.96;100.00;99789.73;436684;1255;140704;-53
2024/01/20 00:21:04;;;;;;;;;;;;;;;-2.97;100.00;99791.63;432592;1259;140847;-54
2024/01/20 00:31:10;;;;;;;20.70;13.60;;;;;;;-3.00;100.00;99789.77;432723;1260;126169;-55
2024/01/20 00:41:15;;;;;;;15.20;11.10;;;;;;;-3.02;100.00;99781.20;432601;1256;141589;-52
2024/01/20 00:51:27;;;;;;;20.20;11.20;;;;;;;-3.01;100.00;99777.27;433620;1258;140124;-54
2024/01/20 01:01:32;;;;;;;15.80;11.20;;;;;;;-3.01;100.00;99776.59;432541;1258;141060;-52
2024/01/20 01:11:38;;;;;;;18.00;10.70;;;;;;;-3.06;100.00;99785.36;432949;1258;139847;-51
2024/01/20 01:21:42;;;;;;;;;;;;;;;-3.08;100.00;99797.86;433052;1260;140356;-55
2024/01/20 01:31:48;;;;;;;12.70;9.00;;;;;;;-3.14;100.00;99812.79;432774;1259;126562;-55
2024/01/20 01:41:54;;;;;;;14.20;10.90;;;;;;;-3.19;100.00;99812.98;437762;1255;139648;-51
2024/01/20 01:52:00;;;;;;;13.80;9.90;;;;;;;-3.28;100.00;99813.86;432596;1256;141225;-54
2024/01/20 02:02:06;;;;;;;15.40;8.10;;;;;;;-3.34;100.00;99816.46;432970;1256;141362;-54
2024/01/20 02:12:12;;;;;;;12.60;8.50;;;;;;;-3.31;100.00;99828.44;432679;1259;140482;-55
2024/01/20 02:22:18;;;;;;;13.70;8.90;;;;;;;-3.27;100.00;99822.61;432643;1260;140292;-54
2024/01/20 02:32:24;;;;;;;16.30;10.10;;;;;;;-3.28;100.00;99804.98;432776;1257;254842;-54
2024/01/20 02:42:28;;;;;;;;;;;;;;;-3.29;100.00;99788.53;436286;1255;141813;-53
2024/01/20 02:52:34;;;;;;;14.70;8.40;;;;;;;-3.36;100.00;99787.20;432874;1255;126173;-54
2024/01/20 03:02:40;;;;;;;15.30;7.50;;;;;;;-3.50;100.00;99786.73;432743;1256;141248;-54
2024/01/20 03:12:44;;;;;;;;;;;;;;;-3.54;100.00;99793.23;433934;1256;141057;-53
2024/01/20 03:22:49;;;;;;;10.10;7.00;;;;;;;-3.49;100.00;99797.50;433050;1257;126786;-54
2024/01/20 03:32:55;;;;;;;12.30;6.80;;;;;;;-3.44;100.00;99802.45;432817;1258;145902;-55
2024/01/20 03:43:01;;;;;;;15.30;7.30;;;;;;;-3.41;100.00;99806.55;432855;1258;140583;-52
2024/01/20 03:53:07;;;;;;;9.20;7.20;;;;;;;-3.44;100.00;99815.30;432844;1258;139920;-54
2024/01/20 04:03:13;;;;;;;10.10;6.50;;;;;;;-3.47;100.00;99819.91;433380;1260;140955;-53
2024/01/20 04:13:19;;;;;;;11.70;7.10;;;;;;;-3.46;100.00;99828.81;433405;1256;140601;-54
2024/01/20 04:23:23;;;;;;;;;;;;;;;-3.44;100.00;99831.04;432972;1256;140797;-54
2024/01/20 04:33:30;;;;;;;8.70;6.50;;;;;;;-3.40;100.00;99841.30;433265;1260;126905;-54
2024/01/20 04:43:36;;;;;;;7.20;5.40;;;;;;;-3.35;100.00;99841.64;433490;1256;140327;-52
2024/01/20 04:53:42;;;;;;;11.20;5.70;;;;;;;-3.31;100.00;99843.33;432863;1256;141211;-55
2024/01/20 05:03:47;;;;;;;7.10;6.30;;;;;;;-3.29;100.00;99844.87;432936;1260;139801;-55
2024/01/20 05:13:53;;;;;;;9.90;5.80;;;;;;;-3.24;100.00;99856.14;435082;1256;140353;-53
2024/01/20 05:23:59;;;;;;;12.80;6.20;;;;;;;-3.19;100.00;99860.42;433179;1256;140584;-52
2024/01/20 05:34:03;;;;;;;;;;;;;;;-3.14;100.00;99865.87;433343;1256;141197;-55
2024/01/20 05:44:10;;;;;;;10.20;6.80;;;;;;;-3.08;100.00;99873.56;433825;1256;125922;-52
2024/01/20 05:54:14;;;;;;;;;;;;;;;-3.05;100.00;99876.30;433027;1258;140914;-50
2024/01/20 06:04:20;;;;;;;9.70;7.40;;;;;;;-3.04;100.00;99891.19;432779;1259;126787;-53
2024/01/20 06:14:26;;;;;;;12.00;6.80;;;;;;;-3.00;100.00;99904.70;433550;1260;141227;-55
2024/01/20 06:24:32;;;;;;;7.90;6.30;;;;;;;-3.03;100.00;99901.30;432788;1259;140804;-57
2024/01/20 06:34:39;;;;;;;10.60;6.80;;;;;;;-3.06;100.00;99907.65;432747;1256;140362;-55
2024/01/20 06:44:45;;;;;;;11.00;6.90;;;;;;;-3.06;100.00;99918.09;433670;1260;141372;-56
2024/01/20 06:54:51;;;;;;;15.30;8.90;;;;;;;-3.07;100.00;99934.19;433451;1256;140047;-57
2024/01/20 07:04:56;;;;;;;11.50;7.30;;;;;;;-3.04;100.00;99935.73;433245;1255;140564;-60
2024/01/20 07:15:02;;;;;;;11.30;7.20;;;;;;;-2.99;100.00;99932.46;433305;1256;140936;-61
2024/01/20 07:25:10;;;;;;;8.00;5.80;;;;;;;-2.93;100.00;99935.52;432802;1259;141103;-61
2024/01/20 07:35:15;;;;;;;11.10;6.80;;;;;;;-2.85;100.00;99941.85;434364;1260;142407;-61
2024/01/20 07:45:21;;;;;;;8.50;6.90;;;;;;;-2.75;100.00;99947.98;432689;1260;141314;-61
2024/01/20 07:55:26;;;;;;;;;;;;;;;-2.67;100.00;99965.95;432720;1256;140785;-62
2024/01/20 08:05:32;;;;;;;12.40;6.50;;;;;;;-2.62;100.00;99970.89;433488;1256;127024;-61
2024/01/20 08:15:40;;;;;;;9.00;6.00;;;;;;;-2.57;100.00;99968.48;438305;1260;140401;-61
2024/01/20 08:25:45;;;;;;;11.60;7.50;;;;;;;-2.49;100.00;99964.85;432821;1256;140258;-61
2024/01/20 08:35:51;;;;;;;12.60;7.80;;;;;;;-2.40;100.00;99974.91;432711;1259;141249;-60
2024/01/20 08:45:57;;;;;;;10.20;7.90;;;;;;;-2.30;100.00;99978.81;432649;1257;141190;-62
2024/01/20 08:56:04;;;;;;;8.20;5.60;;;;;;;-2.19;100.00;99985.45;433066;1260;140116;-61
2024/01/20 09:06:11;;;;;;;16.40;8.70;;;;;;;-2.05;100.00;99979.70;433693;1260;139917;-62
2024/01/20 09:16:17;;;;;;;11.40;7.40;;;;;;;-1.98;100.00;99996.65;436675;1256;140680;-60
2024/01/20 09:26:23;;;;;;;11.70;6.00;;;;;;;-1.99;100.00;100006.62;438973;1256;139782;-62
2024/01/20 09:36:29;;;;;;;11.30;8.80;;;;;;;-1.95;100.00;100020.83;432763;1260;144525;-62
2024/01/20 09:46:35;;;;;;;9.70;6.80;;;;;;;-2.03;100.00;100025.52;432681;1257;140868;-61
2024/01/20 09:56:41;;;;;;;11.10;7.50;;;;;;;-2.01;100.00;100032.36;432755;1260;140686;-62
2024/01/20 10:06:45;;;;;;;;;;;;;;;-1.99;100.00;100028.57;432905;1257;140462;-62
2024/01/20 10:16:51;;;;;;;11.40;8.80;;;;;;;-2.01;100.00;100021.72;432897;1259;127097;-62
2024/01/20 10:26:58;;;;;;;13.90;9.40;;;;;;;-1.97;100.00;100013.46;433347;1258;140868;-62
2024/01/20 10:37:09;;;;;;;14.80;7.70;;;;;;;-1.89;100.00;100018.40;433693;1256;140189;-60
2024/01/20 10:47:21;;;;;;;10.70;8.30;;;;;;;-1.84;100.00;100013.05;437403;1257;140833;-62
2024/01/20 10:57:27;;;;;;;11.40;7.70;;;;;;;-1.82;100.00;100006.16;434959;1260;140933;-62
2024/01/20 11:07:38;;;;;;;12.60;9.60;;;;;;;-1.79;100.00;100017.30;432944;1259;141483;-62
2024/01/20 11:17:44;;;;;;;15.60;10.00;;;;;;;-1.86;100.00;100007.90;434688;1258;139984;-62
2024/01/20 11:27:52;;;;;;;10.30;7.80;;;;;;;-1.69;100.00;100014.14;432867;1256;141072;-62
2024/01/20 11:37:59;;;;;;;12.70;10.00;;;;;;;-1.61;100.00;100001.38;435184;1260;141010;-61
2024/01/20 11:48:06;;;;;;;14.30;7.40;;;;;;;-1.38;100.00;99999.99;433071;1260;141588;-62
2024/01/20 11:58:18;;;;;;;13.00;8.20;;;;;;;-1.23;100.00;99999.20;433825;1260;141476;-60
2024/01/20 12:08:24;;;;;;;11.60;10.20;;;;;;;-1.21;100.00;100007.59;433188;1256;140464;-62
2024/01/20 12:18:29;;;;;;;11.00;8.10;;;;;;;-1.19;100.00;100015.66;432894;1259;143590;-61
2024/01/20 12:28:36;;;;;;;15.10;10.90;;;;;;;-1.24;100.00;100009.34;433091;1260;140563;-62
2024/01/20 12:38:40;;;;;;;;;;;;;;;-1.29;100.00;100005.42;433099;1260;141651;-61
2024/01/20 12:48:46;;;;;;;11.80;8.80;;;;;;;-1.22;100.00;99993.34;433012;1262;126408;-61
2024/01/20 12:58:52;;;;;;;10.50;8.00;;;;;;;-1.16;100.00;99985.73;433336;1260;140247;-62
2024/01/20 13:08:58;;;;;;;10.70;8.20;;;;;;;-1.08;100.00;99978.79;433061;1260;140679;-61
2024/01/20 13:19:04;;;;;;;10.20;7.40;;;;;;;-0.89;100.00;99977.39;432943;1264;140055;-61
2024/01/20 13:29:11;;;;;;;10.10;7.10;;;;;;;-0.69;100.00;99980.95;432984;1258;140845;-61
2024/01/20 13:39:16;;;;;;;9.30;7.20;;;;;;;-0.62;100.00;99992.39;433097;1260;140487;-62
2024/01/20 13:49:22;;;;;;;11.40;7.70;;;;;;;-0.61;100.00;100015.42;433048;1261;139320;-61
2024/01/20 13:59:28;;;;;;;9.90;7.90;;;;;;;-0.80;100.00;100033.31;433001;1260;139979;-61
2024/01/20 14:09:34;;;;;;;10.10;6.60;;;;;;;-1.01;100.00;100033.70;433115;1258;140111;-62
2024/01/20 14:19:40;;;;;;;9.90;7.40;;;;;;;-1.11;100.00;100041.52;432902;1258;139971;-62
2024/01/20 14:29:46;;;;;;;11.30;8.00;;;;;;;-1.18;100.00;100047.59;434930;1258;209205;-62
2024/01/20 14:39:52;;;;;;;10.10;6.90;;;;;;;-1.23;100.00;100053.14;433632;1257;141913;-62
2024/01/20 14:50:00;;;;;;;12.30;8.90;;;;;;;-1.30;100.00;100054.23;433696;1258;140001;-61
2024/01/20 15:00:09;;;;;;;10.60;8.30;;;;;;;-1.32;100.00;100070.55;433174;1260;140042;-62
2024/01/20 15:10:15;;;;;;;9.00;6.50;;;;;;;-1.35;100.00;100079.16;434549;1255;140582;-62
2024/01/20 15:20:21;;;;;;;15.30;8.60;;;;;;;-1.37;100.00;100084.52;432990;1257;139754;-62
2024/01/20 15:30:27;;;;;;;10.70;7.20;;;;;;;-1.40;100.00;100091.40;433223;1258;141109;-61
2024/01/20 15:40:33;;;;;;;11.20;8.70;;;;;;;-1.56;100.00;100102.65;433126;1258;141335;-62
2024/01/20 15:50:39;;;;;;;18.50;8.90;;;;;;;-1.72;100.00;100117.34;433116;1260;139806;-62
2024/01/20 16:00:44;;;;;;;10.10;8.00;;;;;;;-1.83;100.00;100123.92;436185;1257;141282;-63
2024/01/20 16:10:50;;;;;;;11.60;6.90;;;;;;;-1.91;100.00;100133.20;433277;1260;140229;-62
2024/01/20 16:20:56;;;;;;;10.80;8.20;;;;;;;-1.95;100.00;100146.09;433289;1258;140973;-61
2024/01/20 16:31:02;;;;;;;11.70;8.20;;;;;;;-2.01;100.00;100150.58;432833;1259;141617;-62
2024/01/20 16:41:10;;;;;;;10.60;7.90;;;;;;;-2.04;100.00;100163.80;432999;1260;140032;-60
2024/01/20 16:51:16;;;;;;;11.80;8.20;;;;;;;-2.02;100.00;100168.77;433556;1260;140596;-61
2024/01/20 17:01:31;;;;;;;14.10;9.70;;;;;;;-1.97;100.00;100172.88;433396;1255;141642;-62
2024/01/20 17:11:37;;;;;;;11.60;7.90;;;;;;;-1.88;100.00;100186.57;432828;1257;140295;-61
2024/01/20 17:21:43;;;;;;;10.40;8.20;;;;;;;-1.80;100.00;100204.92;432953;1259;141688;-61
2024/01/20 17:31:48;;;;;;;13.30;9.20;;;;;;;-1.73;100.00;100219.14;433162;1258;141150;-61
2024/01/20 17:41:57;;;;;;;11.00;7.90;;;;;;;-1.65;100.00;100228.38;432784;1256;141413;-61
2024/01/20 17:52:04;;;;;;;14.30;10.00;;;;;;;-1.58;100.00;100242.10;442771;1255;141703;-60
2024/01/20 18:02:10;;;;;;;15.70;9.40;;;;;;;-1.50;100.00;100269.38;433644;1257;139850;-61
2024/01/20 18:12:15;;;;;;;14.70;9.00;;;;;;;-1.46;100.00;100280.17;432711;1256;139760;-62
2024/01/20 18:22:21;;;;;;;13.80;9.10;;;;;;;-1.43;100.00;100289.77;433304;1256;140118;-62
2024/01/20 18:32:27;;;;;;;16.20;10.10;;;;;;;-1.40;100.00;100304.03;433220;1260;139656;-62
2024/01/20 18:42:33;;;;;;;14.00;8.40;;;;;;;-1.39;100.00;100324.29;434510;1257;141236;-61
2024/01/20 18:52:39;;;;;;;11.50;8.80;;;;;;;-1.36;100.00;100329.27;433725;1260;140957;-62
2024/01/20 19:02:45;;;;;;;13.30;8.70;;;;;;;-1.33;100.00;100349.19;433420;1257;141432;-61
2024/01/20 19:12:51;;;;;;;14.40;10.00;;;;;;;-1.30;100.00;100357.41;433257;1260;140939;-61
2024/01/20 19:22:56;;;;;;;12.40;9.20;;;;;;;-1.27;100.00;100365.14;433383;1256;141524;-61
2024/01/20 19:33:02;;;;;;;14.70;10.20;;;;;;;-1.26;100.00;100370.64;433503;1256;140247;-61
2024/01/20 19:43:10;;;;;;;10.30;8.10;;;;;;;-1.23;100.00;100385.91;433645;1257;141162;-60
2024/01/20 19:53:16;;;;;;;15.00;9.80;;;;;;;-1.20;100.00;100397.77;432549;1260;140987;-62
2024/01/20 20:03:22;;;;;;;14.30;9.70;;;;;;;-1.19;100.00;100419.77;432963;1257;141739;-61
2024/01/20 20:13:28;;;;;;;16.70;10.00;;;;;;;-1.21;100.00;100425.44;432759;1258;141175;-61
2024/01/20 20:23:33;;;;;;;13.90;9.60;;;;;;;-1.21;100.00;100440.02;432623;1258;140038;-61
2024/01/20 20:33:41;;;;;;;16.40;9.50;;;;;;;-1.20;100.00;100456.02;433143;1258;140479;-61
2024/01/20 20:43:47;;;;;;;13.90;10.10;;;;;;;-1.19;100.00;100451.20;433134;1255;140387;-61
2024/01/20 20:53:53;;;;;;;14.80;9.20;;;;;;;-1.19;100.00;100456.70;432965;1258;140742;-61
2024/01/20 21:03:59;;;;;;;16.50;11.10;;;;;;;-1.19;100.00;100466.84;433183;1256;141384;-60
2024/01/20 21:14:10;;;;;;;12.70;9.30;;;;;;;-1.19;100.00;100481.45;433047;1258;142486;-61
2024/01/20 21:24:16;;;;;;;12.80;9.50;;;;;;;-1.18;100.00;100496.56;432986;1259;140744;-61
2024/01/20 21:34:22;;;;;;;32.50;12.30;;;;;;;-1.16;100.00;100506.86;433678;1259;142205;-60
2024/01/20 21:44:28;;;;;;;15.50;10.50;;;;;;;-1.17;100.00;100518.89;433843;1256;140812;-60
2024/01/20 21:54:34;;;;;;;13.70;10.40;;;;;;;-1.15;100.00;100532.99;433685;1257;141203;-61
2024/01/20 22:04:40;;;;;;;15.70;10.60;;;;;;;-1.16;100.00;100545.35;432908;1258;141158;-61
2024/01/20 22:14:45;;;;;;;15.20;10.80;;;;;;;-1.13;100.00;100549.13;432935;1256;142614;-61
2024/01/20 22:24:51;;;;;;;9.70;7.30;;;;;;;-1.11;100.00;100559.27;433011;1257;141625;-61
2024/01/20 22:34:57;;;;;;;13.90;11.00;;;;;;;-1.08;100.00;100569.08;433193;1258;139765;-61
2024/01/20 22:45:07;;;;;;;16.60;10.80;;;;;;;-1.07;100.00;100578.70;433292;1257;140962;-62
2024/01/20 22:55:12;;;;;;;12.30;10.00;;;;;;;-1.07;100.00;100604.13;433978;1260;140765;-61
2024/01/20 23:05:18;;;;;;;16.80;10.40;;;;;;;-1.07;100.00;100618.73;433090;1260;140896;-61
2024/01/20 23:15:24;;;;;;;20.50;11.70;;;;;;;-1.05;100.00;100631.98;433458;1256;141251;-61
2024/01/20 23:25:30;;;;;;;15.20;11.10;;;;;;;-1.05;100.00;100639.70;433078;1258;140937;-61
2024/01/20 23:35:37;;;;;;;15.00;10.30;;;;;;;-1.05;100.00;100656.72;432955;1255;140184;-60
2024/01/20 23:45:43;;;;;;;18.00;10.50;;;;;;;-1.04;100.00;100666.52;433147;1258;140920;-61
2024/01/20 23:55:48;;;;;;;21.50;12.50;;;;;;;-1.03;100.00;100677.52;433004;1260;140451;-61
